Pagrindinis puslapis
METAR-TAF:

METAR-TAF

Oro uostai :

Monterija, Kolumbija

platuma: 08-49N, ilguma: 075-51W, Aukštis: 20 m

Dabartinis oras

Ataskaita buvo paskelbta 50 minutes, ne 12:00 UTC
Ramus vėjas
Temperatūra 26°C
Drėgmė 84%
Slėgis 1013 hPa
Matomumas 10 km arba daugiau
Su prošvaistėmis ne aukštis 1800 ft

METAR: SKMR 281200Z 00000KT 9999 BKN018 26/23 A2992

Laikas: 07:50 (12:50 UTC)


TAF: trūkstamas

Orai ataskaitas ir orų prognozės (METAR, TAF).

turimą stotys yra geltonos ir raudonos taškus žemėlapyje.

Perkelti pele per norėdami pamatyti stoties vardą.

Tada spustelėkite, norėdami matyti oro stebėjimo ir prognozės.

Norėdami pakeisti žemėlapį: spustelėkite ant žalios mygtukų su juodo kryžiaus žemyn,; žalią mygtuką su brūkšneliu, jei norite nutolinti; arba žalių rodyklių gretimoms žemėlapius.


METAR-TAF: